sensor_id;sensor_type;location;lat;lon;timestamp;temperature;humidity
43338;DHT22;28933;52.492;13.434;2024-02-23T00:00:10;12.10;99.90
43338;DHT22;28933;52.492;13.434;2024-02-23T00:02:57;12.10;99.90
43338;DHT22;28933;52.492;13.434;2024-02-23T00:05:43;12.00;99.90
43338;DHT22;28933;52.492;13.434;2024-02-23T00:08:29;12.00;99.90
43338;DHT22;28933;52.492;13.434;2024-02-23T00:11:15;12.00;99.90
43338;DHT22;28933;52.492;13.434;2024-02-23T00:14:01;12.00;99.90
43338;DHT22;28933;52.492;13.434;2024-02-23T00:16:48;12.00;99.90
43338;DHT22;28933;52.492;13.434;2024-02-23T00:19:34;12.00;99.90
43338;DHT22;28933;52.492;13.434;2024-02-23T00:22:20;12.00;99.90
43338;DHT22;28933;52.492;13.434;2024-02-23T00:25:06;12.00;99.90
43338;DHT22;28933;52.492;13.434;2024-02-23T00:27:52;12.00;99.90
43338;DHT22;28933;52.492;13.434;2024-02-23T00:30:38;12.00;99.90
43338;DHT22;28933;52.492;13.434;2024-02-23T00:33:24;12.00;99.90
43338;DHT22;28933;52.492;13.434;2024-02-23T00:36:10;12.10;99.90
43338;DHT22;28933;52.492;13.434;2024-02-23T00:38:56;12.00;99.90
43338;DHT22;28933;52.492;13.434;2024-02-23T00:41:42;12.10;99.90
43338;DHT22;28933;52.492;13.434;2024-02-23T00:44:28;12.10;99.90
43338;DHT22;28933;52.492;13.434;2024-02-23T00:47:14;12.10;99.90
43338;DHT22;28933;52.492;13.434;2024-02-23T00:50:01;12.10;99.90
43338;DHT22;28933;52.492;13.434;2024-02-23T00:52:47;12.00;99.90
43338;DHT22;28933;52.492;13.434;2024-02-23T00:55:33;12.00;99.90
43338;DHT22;28933;52.492;13.434;2024-02-23T00:58:19;12.00;99.90
43338;DHT22;28933;52.492;13.434;2024-02-23T01:01:05;12.00;99.90
43338;DHT22;28933;52.492;13.434;2024-02-23T01:03:51;12.10;99.90
43338;DHT22;28933;52.492;13.434;2024-02-23T01:06:37;12.00;99.90
43338;DHT22;28933;52.492;13.434;2024-02-23T01:09:23;12.00;99.90
43338;DHT22;28933;52.492;13.434;2024-02-23T01:12:08;12.00;99.90
43338;DHT22;28933;52.492;13.434;2024-02-23T01:14:54;12.00;99.90
43338;DHT22;28933;52.492;13.434;2024-02-23T01:17:40;12.10;99.90
43338;DHT22;28933;52.492;13.434;2024-02-23T01:20:26;12.10;99.90
43338;DHT22;28933;52.492;13.434;2024-02-23T01:23:12;12.10;99.90
43338;DHT22;28933;52.492;13.434;2024-02-23T01:25:58;12.10;99.90
43338;DHT22;28933;52.492;13.434;2024-02-23T01:28:45;12.10;99.90
43338;DHT22;28933;52.492;13.434;2024-02-23T01:31:31;12.20;99.90
43338;DHT22;28933;52.492;13.434;2024-02-23T01:34:17;12.20;99.90
43338;DHT22;28933;52.492;13.434;2024-02-23T01:37:03;12.20;99.90
43338;DHT22;28933;52.492;13.434;2024-02-23T01:39:49;12.20;99.90
43338;DHT22;28933;52.492;13.434;2024-02-23T01:42:35;12.20;99.90
43338;DHT22;28933;52.492;13.434;2024-02-23T01:45:21;12.20;99.90
43338;DHT22;28933;52.492;13.434;2024-02-23T01:48:07;12.30;99.90
43338;DHT22;28933;52.492;13.434;2024-02-23T01:50:54;12.30;99.90
43338;DHT22;28933;52.492;13.434;2024-02-23T01:53:40;12.30;99.90
43338;DHT22;28933;52.492;13.434;2024-02-23T01:56:27;12.40;99.90
43338;DHT22;28933;52.492;13.434;2024-02-23T01:59:13;12.40;99.90
43338;DHT22;28933;52.492;13.434;2024-02-23T02:01:59;12.40;99.90
43338;DHT22;28933;52.492;13.434;2024-02-23T02:04:45;12.50;99.90
43338;DHT22;28933;52.492;13.434;2024-02-23T02:07:31;12.50;99.90
43338;DHT22;28933;52.492;13.434;2024-02-23T02:10:17;12.50;99.90
43338;DHT22;28933;52.492;13.434;2024-02-23T02:13:04;12.60;99.90
43338;DHT22;28933;52.492;13.434;2024-02-23T02:15:51;12.60;99.90
43338;DHT22;28933;52.492;13.434;2024-02-23T02:18:37;12.60;99.90
43338;DHT22;28933;52.492;13.434;2024-02-23T02:21:22;12.60;99.90
43338;DHT22;28933;52.492;13.434;2024-02-23T02:24:10;12.60;99.90
43338;DHT22;28933;52.492;13.434;2024-02-23T02:26:56;12.60;99.90
43338;DHT22;28933;52.492;13.434;2024-02-23T02:29:42;12.60;99.90
43338;DHT22;28933;52.492;13.434;2024-02-23T02:32:28;12.60;99.90
43338;DHT22;28933;52.492;13.434;2024-02-23T02:35:14;12.50;99.90
43338;DHT22;28933;52.492;13.434;2024-02-23T02:38:01;12.50;99.90
43338;DHT22;28933;52.492;13.434;2024-02-23T02:40:47;12.50;99.90
43338;DHT22;28933;52.492;13.434;2024-02-23T02:43:33;12.40;99.90
43338;DHT22;28933;52.492;13.434;2024-02-23T02:46:18;12.40;99.80
43338;DHT22;28933;52.492;13.434;2024-02-23T02:49:05;12.30;98.80
43338;DHT22;28933;52.492;13.434;2024-02-23T02:51:50;12.30;99.00
43338;DHT22;28933;52.492;13.434;2024-02-23T02:54:37;12.30;99.10
43338;DHT22;28933;52.492;13.434;2024-02-23T02:57:23;12.30;98.90
43338;DHT22;28933;52.492;13.434;2024-02-23T03:00:10;12.30;98.80
43338;DHT22;28933;52.492;13.434;2024-02-23T03:02:56;12.20;98.50
43338;DHT22;28933;52.492;13.434;2024-02-23T03:05:42;12.20;98.30
43338;DHT22;28933;52.492;13.434;2024-02-23T03:08:29;12.20;98.10
43338;DHT22;28933;52.492;13.434;2024-02-23T03:11:15;12.10;97.90
43338;DHT22;28933;52.492;13.434;2024-02-23T03:14:00;12.10;97.80
43338;DHT22;28933;52.492;13.434;2024-02-23T03:16:46;12.10;97.60
43338;DHT22;28933;52.492;13.434;2024-02-23T03:19:35;12.10;97.60
43338;DHT22;28933;52.492;13.434;2024-02-23T03:22:21;12.00;97.30
43338;DHT22;28933;52.492;13.434;2024-02-23T03:25:07;12.00;97.20
43338;DHT22;28933;52.492;13.434;2024-02-23T03:27:53;12.00;97.00
43338;DHT22;28933;52.492;13.434;2024-02-23T03:30:39;12.00;96.90
43338;DHT22;28933;52.492;13.434;2024-02-23T03:33:25;11.90;96.80
43338;DHT22;28933;52.492;13.434;2024-02-23T03:36:11;11.90;96.70
43338;DHT22;28933;52.492;13.434;2024-02-23T03:38:57;11.90;96.60
43338;DHT22;28933;52.492;13.434;2024-02-23T03:41:43;11.90;96.40
43338;DHT22;28933;52.492;13.434;2024-02-23T03:44:29;11.90;96.30
43338;DHT22;28933;52.492;13.434;2024-02-23T03:47:16;11.90;96.20
43338;DHT22;28933;52.492;13.434;2024-02-23T03:50:03;11.80;96.00
43338;DHT22;28933;52.492;13.434;2024-02-23T03:52:49;11.80;95.80
43338;DHT22;28933;52.492;13.434;2024-02-23T03:55:34;11.80;95.80
43338;DHT22;28933;52.492;13.434;2024-02-23T03:58:20;11.80;95.70
43338;DHT22;28933;52.492;13.434;2024-02-23T04:01:06;11.70;95.60
43338;DHT22;28933;52.492;13.434;2024-02-23T04:03:52;11.70;95.60
43338;DHT22;28933;52.492;13.434;2024-02-23T04:06:38;11.70;95.50
43338;DHT22;28933;52.492;13.434;2024-02-23T04:09:24;11.70;95.40
43338;DHT22;28933;52.492;13.434;2024-02-23T04:12:10;11.70;95.40
43338;DHT22;28933;52.492;13.434;2024-02-23T04:14:56;11.70;95.50
43338;DHT22;28933;52.492;13.434;2024-02-23T04:17:42;11.60;95.40
43338;DHT22;28933;52.492;13.434;2024-02-23T04:20:28;11.70;95.40
43338;DHT22;28933;52.492;13.434;2024-02-23T04:23:14;11.60;95.30
43338;DHT22;28933;52.492;13.434;2024-02-23T04:26:00;11.60;95.20
43338;DHT22;28933;52.492;13.434;2024-02-23T04:28:46;11.60;95.20
43338;DHT22;28933;52.492;13.434;2024-02-23T04:31:32;11.60;95.10
43338;DHT22;28933;52.492;13.434;2024-02-23T04:34:18;11.50;95.10
43338;DHT22;28933;52.492;13.434;2024-02-23T04:37:04;11.50;95.10
43338;DHT22;28933;52.492;13.434;2024-02-23T04:39:49;11.50;95.10
43338;DHT22;28933;52.492;13.434;2024-02-23T04:42:35;11.50;95.00
43338;DHT22;28933;52.492;13.434;2024-02-23T04:45:21;11.40;94.90
43338;DHT22;28933;52.492;13.434;2024-02-23T04:48:07;11.40;94.80
43338;DHT22;28933;52.492;13.434;2024-02-23T04:50:53;11.30;94.70
43338;DHT22;28933;52.492;13.434;2024-02-23T04:53:39;11.30;94.70
43338;DHT22;28933;52.492;13.434;2024-02-23T04:56:25;11.30;94.70
43338;DHT22;28933;52.492;13.434;2024-02-23T04:59:11;11.30;94.60
43338;DHT22;28933;52.492;13.434;2024-02-23T05:01:57;11.30;94.60
43338;DHT22;28933;52.492;13.434;2024-02-23T05:04:43;11.30;94.50
43338;DHT22;28933;52.492;13.434;2024-02-23T05:07:30;11.30;94.40
43338;DHT22;28933;52.492;13.434;2024-02-23T05:10:16;11.20;94.30
43338;DHT22;28933;52.492;13.434;2024-02-23T05:13:03;11.20;94.30
43338;DHT22;28933;52.492;13.434;2024-02-23T05:15:54;11.20;94.20
43338;DHT22;28933;52.492;13.434;2024-02-23T05:18:40;11.20;94.20
43338;DHT22;28933;52.492;13.434;2024-02-23T05:21:27;11.30;94.10
43338;DHT22;28933;52.492;13.434;2024-02-23T05:24:13;11.20;94.00
43338;DHT22;28933;52.492;13.434;2024-02-23T05:26:59;11.20;94.00
43338;DHT22;28933;52.492;13.434;2024-02-23T05:29:47;11.20;93.80
43338;DHT22;28933;52.492;13.434;2024-02-23T05:32:34;11.20;93.90
43338;DHT22;28933;52.492;13.434;2024-02-23T05:35:20;11.20;93.80
43338;DHT22;28933;52.492;13.434;2024-02-23T05:38:06;11.20;93.70
43338;DHT22;28933;52.492;13.434;2024-02-23T05:40:52;11.10;93.60
43338;DHT22;28933;52.492;13.434;2024-02-23T05:43:38;11.10;93.40
43338;DHT22;28933;52.492;13.434;2024-02-23T05:46:24;11.00;93.20
43338;DHT22;28933;52.492;13.434;2024-02-23T05:49:09;10.90;93.10
43338;DHT22;28933;52.492;13.434;2024-02-23T05:51:56;10.90;93.20
43338;DHT22;28933;52.492;13.434;2024-02-23T05:54:41;10.80;93.00
43338;DHT22;28933;52.492;13.434;2024-02-23T05:57:27;10.70;92.90
43338;DHT22;28933;52.492;13.434;2024-02-23T06:00:14;10.70;93.00
43338;DHT22;28933;52.492;13.434;2024-02-23T06:03:01;10.60;92.90
43338;DHT22;28933;52.492;13.434;2024-02-23T06:05:47;10.50;92.80
43338;DHT22;28933;52.492;13.434;2024-02-23T06:08:33;10.50;92.80
43338;DHT22;28933;52.492;13.434;2024-02-23T06:11:19;10.40;92.70
43338;DHT22;28933;52.492;13.434;2024-02-23T06:14:05;10.40;92.80
43338;DHT22;28933;52.492;13.434;2024-02-23T06:16:50;10.40;92.70
43338;DHT22;28933;52.492;13.434;2024-02-23T06:19:36;10.40;92.70
43338;DHT22;28933;52.492;13.434;2024-02-23T06:22:22;10.30;92.70
43338;DHT22;28933;52.492;13.434;2024-02-23T06:25:09;10.40;92.70
43338;DHT22;28933;52.492;13.434;2024-02-23T06:27:56;10.30;92.60
43338;DHT22;28933;52.492;13.434;2024-02-23T06:30:41;10.30;92.70
43338;DHT22;28933;52.492;13.434;2024-02-23T06:33:27;10.30;92.70
43338;DHT22;28933;52.492;13.434;2024-02-23T06:36:15;10.30;92.60
43338;DHT22;28933;52.492;13.434;2024-02-23T06:39:01;10.30;92.60
43338;DHT22;28933;52.492;13.434;2024-02-23T06:41:48;10.20;92.60
43338;DHT22;28933;52.492;13.434;2024-02-23T06:44:34;10.20;92.60
43338;DHT22;28933;52.492;13.434;2024-02-23T06:47:20;10.20;92.60
43338;DHT22;28933;52.492;13.434;2024-02-23T06:50:06;10.20;92.60
43338;DHT22;28933;52.492;13.434;2024-02-23T06:52:54;10.20;92.50
43338;DHT22;28933;52.492;13.434;2024-02-23T06:55:40;10.20;92.60
43338;DHT22;28933;52.492;13.434;2024-02-23T06:58:26;10.20;92.60
43338;DHT22;28933;52.492;13.434;2024-02-23T07:01:12;10.20;92.50
43338;DHT22;28933;52.492;13.434;2024-02-23T07:03:58;10.20;92.50
43338;DHT22;28933;52.492;13.434;2024-02-23T07:06:44;10.20;92.50
43338;DHT22;28933;52.492;13.434;2024-02-23T07:09:30;10.30;92.50
43338;DHT22;28933;52.492;13.434;2024-02-23T07:12:16;10.30;92.50
43338;DHT22;28933;52.492;13.434;2024-02-23T07:15:02;10.20;92.40
43338;DHT22;28933;52.492;13.434;2024-02-23T07:17:48;10.20;92.50
43338;DHT22;28933;52.492;13.434;2024-02-23T07:20:37;10.20;92.50
43338;DHT22;28933;52.492;13.434;2024-02-23T07:23:24;10.30;92.50
43338;DHT22;28933;52.492;13.434;2024-02-23T07:26:09;10.30;92.80
43338;DHT22;28933;52.492;13.434;2024-02-23T07:28:55;10.40;92.60
43338;DHT22;28933;52.492;13.434;2024-02-23T07:31:41;10.40;92.60
43338;DHT22;28933;52.492;13.434;2024-02-23T07:34:27;10.40;92.60
43338;DHT22;28933;52.492;13.434;2024-02-23T07:37:13;10.40;92.60
43338;DHT22;28933;52.492;13.434;2024-02-23T07:39:59;10.50;92.60
43338;DHT22;28933;52.492;13.434;2024-02-23T07:42:45;10.50;92.60
43338;DHT22;28933;52.492;13.434;2024-02-23T07:45:31;10.60;92.60
43338;DHT22;28933;52.492;13.434;2024-02-23T07:48:19;10.60;92.60
43338;DHT22;28933;52.492;13.434;2024-02-23T07:51:05;10.60;92.50
43338;DHT22;28933;52.492;13.434;2024-02-23T07:53:51;10.70;92.60
43338;DHT22;28933;52.492;13.434;2024-02-23T07:56:37;10.70;92.50
43338;DHT22;28933;52.492;13.434;2024-02-23T07:59:23;10.80;92.50
43338;DHT22;28933;52.492;13.434;2024-02-23T08:02:09;10.80;92.50
43338;DHT22;28933;52.492;13.434;2024-02-23T08:04:55;10.80;92.50
43338;DHT22;28933;52.492;13.434;2024-02-23T08:07:41;10.80;92.50
43338;DHT22;28933;52.492;13.434;2024-02-23T08:10:27;10.90;92.50
43338;DHT22;28933;52.492;13.434;2024-02-23T08:13:12;10.90;92.60
43338;DHT22;28933;52.492;13.434;2024-02-23T08:15:58;10.90;92.60
43338;DHT22;28933;52.492;13.434;2024-02-23T08:18:44;10.90;92.60
43338;DHT22;28933;52.492;13.434;2024-02-23T08:21:30;11.10;92.70
43338;DHT22;28933;52.492;13.434;2024-02-23T08:24:16;11.00;92.70
43338;DHT22;28933;52.492;13.434;2024-02-23T08:27:03;11.10;92.60
43338;DHT22;28933;52.492;13.434;2024-02-23T08:29:49;11.10;92.70
43338;DHT22;28933;52.492;13.434;2024-02-23T08:32:35;11.10;92.50
43338;DHT22;28933;52.492;13.434;2024-02-23T08:35:22;11.10;92.50
43338;DHT22;28933;52.492;13.434;2024-02-23T08:38:08;11.10;92.50
43338;DHT22;28933;52.492;13.434;2024-02-23T08:40:54;11.10;92.50
43338;DHT22;28933;52.492;13.434;2024-02-23T08:43:40;11.10;92.40
43338;DHT22;28933;52.492;13.434;2024-02-23T08:46:26;11.10;92.40
43338;DHT22;28933;52.492;13.434;2024-02-23T08:49:12;11.10;92.30
43338;DHT22;28933;52.492;13.434;2024-02-23T08:51:58;11.10;92.20
43338;DHT22;28933;52.492;13.434;2024-02-23T08:54:44;11.20;92.20
43338;DHT22;28933;52.492;13.434;2024-02-23T08:57:30;11.20;92.00
43338;DHT22;28933;52.492;13.434;2024-02-23T09:00:16;11.20;92.00
43338;DHT22;28933;52.492;13.434;2024-02-23T09:03:03;11.20;91.90
43338;DHT22;28933;52.492;13.434;2024-02-23T09:05:49;11.20;91.80
43338;DHT22;28933;52.492;13.434;2024-02-23T09:08:35;11.30;91.80
43338;DHT22;28933;52.492;13.434;2024-02-23T09:11:22;11.20;91.80
43338;DHT22;28933;52.492;13.434;2024-02-23T09:14:08;11.20;91.70
43338;DHT22;28933;52.492;13.434;2024-02-23T09:16:54;11.20;91.60
43338;DHT22;28933;52.492;13.434;2024-02-23T09:19:40;11.30;91.60
43338;DHT22;28933;52.492;13.434;2024-02-23T09:22:26;11.30;91.60
43338;DHT22;28933;52.492;13.434;2024-02-23T09:25:12;11.30;91.70
43338;DHT22;28933;52.492;13.434;2024-02-23T09:27:58;11.40;91.50
43338;DHT22;28933;52.492;13.434;2024-02-23T09:30:44;11.40;91.40
43338;DHT22;28933;52.492;13.434;2024-02-23T09:33:30;11.50;91.40
43338;DHT22;28933;52.492;13.434;2024-02-23T09:36:17;11.50;91.40
43338;DHT22;28933;52.492;13.434;2024-02-23T09:39:03;11.60;91.40
43338;DHT22;28933;52.492;13.434;2024-02-23T09:41:50;11.60;91.30
43338;DHT22;28933;52.492;13.434;2024-02-23T09:44:37;11.60;91.10
43338;DHT22;28933;52.492;13.434;2024-02-23T09:47:24;11.60;91.00
43338;DHT22;28933;52.492;13.434;2024-02-23T09:50:10;11.70;91.10
43338;DHT22;28933;52.492;13.434;2024-02-23T09:52:58;11.70;91.00
43338;DHT22;28933;52.492;13.434;2024-02-23T09:55:45;11.80;90.80
43338;DHT22;28933;52.492;13.434;2024-02-23T09:58:32;11.80;90.70
43338;DHT22;28933;52.492;13.434;2024-02-23T10:01:29;11.80;90.60
43338;DHT22;28933;52.492;13.434;2024-02-23T10:04:23;11.80;90.30
43338;DHT22;28933;52.492;13.434;2024-02-23T10:07:10;11.80;90.50
43338;DHT22;28933;52.492;13.434;2024-02-23T10:09:56;11.80;90.30
43338;DHT22;28933;52.492;13.434;2024-02-23T10:12:42;11.80;90.30
43338;DHT22;28933;52.492;13.434;2024-02-23T10:15:31;11.80;90.40
43338;DHT22;28933;52.492;13.434;2024-02-23T10:18:17;11.80;90.40
43338;DHT22;28933;52.492;13.434;2024-02-23T10:21:04;11.90;90.50
43338;DHT22;28933;52.492;13.434;2024-02-23T10:23:50;11.90;90.40
43338;DHT22;28933;52.492;13.434;2024-02-23T10:26:37;12.00;90.60
43338;DHT22;28933;52.492;13.434;2024-02-23T10:29:23;12.00;90.60
43338;DHT22;28933;52.492;13.434;2024-02-23T10:32:15;12.10;90.50
43338;DHT22;28933;52.492;13.434;2024-02-23T10:35:01;12.10;90.50
43338;DHT22;28933;52.492;13.434;2024-02-23T10:37:50;12.20;90.60
43338;DHT22;28933;52.492;13.434;2024-02-23T10:40:39;12.30;90.50
43338;DHT22;28933;52.492;13.434;2024-02-23T10:43:46;12.40;90.40
43338;DHT22;28933;52.492;13.434;2024-02-23T10:46:33;12.50;90.30
43338;DHT22;28933;52.492;13.434;2024-02-23T10:49:19;12.50;90.00
43338;DHT22;28933;52.492;13.434;2024-02-23T10:52:07;12.50;89.40
43338;DHT22;28933;52.492;13.434;2024-02-23T10:54:55;12.60;88.80
43338;DHT22;28933;52.492;13.434;2024-02-23T10:57:43;12.60;88.50
43338;DHT22;28933;52.492;13.434;2024-02-23T11:00:29;12.60;88.20
43338;DHT22;28933;52.492;13.434;2024-02-23T11:03:17;12.70;87.90
43338;DHT22;28933;52.492;13.434;2024-02-23T11:06:07;12.70;87.60
43338;DHT22;28933;52.492;13.434;2024-02-23T11:08:53;12.70;87.20
43338;DHT22;28933;52.492;13.434;2024-02-23T11:11:39;12.70;87.20
43338;DHT22;28933;52.492;13.434;2024-02-23T11:14:38;12.70;87.40
43338;DHT22;28933;52.492;13.434;2024-02-23T11:17:26;12.80;87.20
43338;DHT22;28933;52.492;13.434;2024-02-23T11:20:14;12.80;87.10
43338;DHT22;28933;52.492;13.434;2024-02-23T11:23:00;12.80;86.90
43338;DHT22;28933;52.492;13.434;2024-02-23T11:26:44;12.80;86.60
43338;DHT22;28933;52.492;13.434;2024-02-23T11:29:12;12.80;86.00
43338;DHT22;28933;52.492;13.434;2024-02-23T11:32:00;12.80;85.90
43338;DHT22;28933;52.492;13.434;2024-02-23T11:34:56;12.80;85.60
43338;DHT22;28933;52.492;13.434;2024-02-23T11:37:55;12.90;85.20
43338;DHT22;28933;52.492;13.434;2024-02-23T11:40:48;12.80;85.10
43338;DHT22;28933;52.492;13.434;2024-02-23T11:43:34;12.90;85.10
43338;DHT22;28933;52.492;13.434;2024-02-23T11:46:21;12.90;85.00
43338;DHT22;28933;52.492;13.434;2024-02-23T11:49:07;12.90;84.80
43338;DHT22;28933;52.492;13.434;2024-02-23T11:51:53;12.90;84.50
43338;DHT22;28933;52.492;13.434;2024-02-23T11:54:39;12.90;84.50
43338;DHT22;28933;52.492;13.434;2024-02-23T11:57:25;12.90;84.50
43338;DHT22;28933;52.492;13.434;2024-02-23T12:00:12;12.90;84.20
43338;DHT22;28933;52.492;13.434;2024-02-23T12:02:59;13.00;84.10
43338;DHT22;28933;52.492;13.434;2024-02-23T12:05:45;13.00;83.80
43338;DHT22;28933;52.492;13.434;2024-02-23T12:08:31;12.90;83.70
43338;DHT22;28933;52.492;13.434;2024-02-23T12:11:23;13.00;83.90
43338;DHT22;28933;52.492;13.434;2024-02-23T12:14:09;13.00;83.70
43338;DHT22;28933;52.492;13.434;2024-02-23T12:16:57;13.00;83.40
43338;DHT22;28933;52.492;13.434;2024-02-23T12:19:43;13.00;83.40
43338;DHT22;28933;52.492;13.434;2024-02-23T12:22:29;13.00;83.10
43338;DHT22;28933;52.492;13.434;2024-02-23T12:25:15;13.10;83.40
43338;DHT22;28933;52.492;13.434;2024-02-23T12:28:01;13.10;83.30
43338;DHT22;28933;52.492;13.434;2024-02-23T12:31:00;13.10;83.30
43338;DHT22;28933;52.492;13.434;2024-02-23T12:33:46;13.10;83.10
43338;DHT22;28933;52.492;13.434;2024-02-23T12:36:36;13.10;83.10
43338;DHT22;28933;52.492;13.434;2024-02-23T12:39:22;13.10;82.90
43338;DHT22;28933;52.492;13.434;2024-02-23T12:42:08;13.10;83.10
43338;DHT22;28933;52.492;13.434;2024-02-23T12:44:54;13.10;82.90
43338;DHT22;28933;52.492;13.434;2024-02-23T12:47:40;13.10;83.00
43338;DHT22;28933;52.492;13.434;2024-02-23T12:50:30;13.10;82.90
43338;DHT22;28933;52.492;13.434;2024-02-23T12:53:39;13.10;82.80
43338;DHT22;28933;52.492;13.434;2024-02-23T12:56:25;13.10;82.80
43338;DHT22;28933;52.492;13.434;2024-02-23T12:59:11;13.10;82.80
43338;DHT22;28933;52.492;13.434;2024-02-23T13:01:57;13.10;82.70
43338;DHT22;28933;52.492;13.434;2024-02-23T13:04:43;13.10;82.50
43338;DHT22;28933;52.492;13.434;2024-02-23T13:07:34;13.10;82.50
43338;DHT22;28933;52.492;13.434;2024-02-23T13:10:20;13.10;82.50
43338;DHT22;28933;52.492;13.434;2024-02-23T13:13:06;13.10;82.40
43338;DHT22;28933;52.492;13.434;2024-02-23T13:15:53;13.10;82.50
43338;DHT22;28933;52.492;13.434;2024-02-23T13:18:40;13.00;82.60
43338;DHT22;28933;52.492;13.434;2024-02-23T13:21:26;13.00;82.60
43338;DHT22;28933;52.492;13.434;2024-02-23T13:24:11;13.00;82.80
43338;DHT22;28933;52.492;13.434;2024-02-23T13:26:57;13.00;82.70
43338;DHT22;28933;52.492;13.434;2024-02-23T13:29:43;13.00;82.60
43338;DHT22;28933;52.492;13.434;2024-02-23T13:32:29;13.00;82.50
43338;DHT22;28933;52.492;13.434;2024-02-23T13:35:15;13.00;82.40
43338;DHT22;28933;52.492;13.434;2024-02-23T13:38:02;13.00;82.30
43338;DHT22;28933;52.492;13.434;2024-02-23T13:40:51;12.90;82.40
43338;DHT22;28933;52.492;13.434;2024-02-23T13:43:37;12.90;82.30
43338;DHT22;28933;52.492;13.434;2024-02-23T13:46:24;12.80;82.40
43338;DHT22;28933;52.492;13.434;2024-02-23T13:49:10;12.80;82.60
43338;DHT22;28933;52.492;13.434;2024-02-23T13:51:58;12.80;82.60
43338;DHT22;28933;52.492;13.434;2024-02-23T13:54:44;12.80;82.60
43338;DHT22;28933;52.492;13.434;2024-02-23T13:57:30;12.80;82.50
43338;DHT22;28933;52.492;13.434;2024-02-23T14:00:17;12.80;82.60
43338;DHT22;28933;52.492;13.434;2024-02-23T14:03:04;12.80;82.50
43338;DHT22;28933;52.492;13.434;2024-02-23T14:05:50;12.80;82.50
43338;DHT22;28933;52.492;13.434;2024-02-23T14:08:37;12.80;82.50
43338;DHT22;28933;52.492;13.434;2024-02-23T14:11:24;12.80;82.50
43338;DHT22;28933;52.492;13.434;2024-02-23T14:14:10;12.80;82.60
43338;DHT22;28933;52.492;13.434;2024-02-23T14:16:56;12.70;82.70
43338;DHT22;28933;52.492;13.434;2024-02-23T14:19:42;12.70;83.30
43338;DHT22;28933;52.492;13.434;2024-02-23T14:22:28;12.60;83.00
43338;DHT22;28933;52.492;13.434;2024-02-23T14:25:14;12.60;83.00
43338;DHT22;28933;52.492;13.434;2024-02-23T14:28:00;12.50;82.80
43338;DHT22;28933;52.492;13.434;2024-02-23T14:30:46;12.50;82.60
43338;DHT22;28933;52.492;13.434;2024-02-23T14:33:32;12.40;82.70
43338;DHT22;28933;52.492;13.434;2024-02-23T14:36:18;12.40;82.60
43338;DHT22;28933;52.492;13.434;2024-02-23T14:39:04;12.40;82.50
43338;DHT22;28933;52.492;13.434;2024-02-23T14:41:50;12.40;82.20
43338;DHT22;28933;52.492;13.434;2024-02-23T14:44:36;12.30;82.20
